Terminal Aerodrome Forecast
Issued by NWS

Home | Current Version | Previous Version | Graphics & Text | Print | Product List | Glossary On
Versions: 1 2 3 4 5 6 7 8 9 10 11 12 13 14 15 16 17
000
FTUS43 KBIS 172322
TAFDIK
TAF
KDIK 172322Z 1800/1824 23015KT P6SM FEW150 FEW250
     FM180300 22012KT P6SM FEW150 FEW250 WS020/29050KT
     FM180800 28015KT P6SM FEW150 FEW250 WS020/30050KT
     FM181500 29018G26KT P6SM SCT250
     FM182300 26012KT P6SM FEW250=

USA.gov is the U.S. government's official web portal to all federal, state and local government web resources and services.